sensor_id;sensor_type;location;lat;lon;timestamp;temperature;humidity
22923;DHT22;11627;51.322;22.816;2023-10-08T00:01:20;9.40;64.90
22923;DHT22;11627;51.322;22.816;2023-10-08T00:03:48;9.30;74.90
22923;DHT22;11627;51.322;22.816;2023-10-08T00:06:17;9.30;78.60
22923;DHT22;11627;51.322;22.816;2023-10-08T00:08:49;9.40;76.30
22923;DHT22;11627;51.322;22.816;2023-10-08T00:11:18;9.40;74.40
22923;DHT22;11627;51.322;22.816;2023-10-08T00:13:45;9.40;68.90
22923;DHT22;11627;51.322;22.816;2023-10-08T00:16:15;9.40;72.80
22923;DHT22;11627;51.322;22.816;2023-10-08T00:19:02;9.40;68.20
22923;DHT22;11627;51.322;22.816;2023-10-08T00:21:36;9.40;67.60
22923;DHT22;11627;51.322;22.816;2023-10-08T00:24:06;9.40;67.50
22923;DHT22;11627;51.322;22.816;2023-10-08T00:26:34;9.30;69.40
22923;DHT22;11627;51.322;22.816;2023-10-08T00:29:09;9.30;77.30
22923;DHT22;11627;51.322;22.816;2023-10-08T00:31:48;9.40;66.30
22923;DHT22;11627;51.322;22.816;2023-10-08T00:34:18;9.40;68.30
22923;DHT22;11627;51.322;22.816;2023-10-08T00:36:47;9.40;60.20
22923;DHT22;11627;51.322;22.816;2023-10-08T00:39:15;9.40;62.10
22923;DHT22;11627;51.322;22.816;2023-10-08T00:41:50;9.40;61.70
22923;DHT22;11627;51.322;22.816;2023-10-08T00:44:17;9.40;65.60
22923;DHT22;11627;51.322;22.816;2023-10-08T00:47:04;9.30;60.70
22923;DHT22;11627;51.322;22.816;2023-10-08T00:49:32;9.30;63.50
22923;DHT22;11627;51.322;22.816;2023-10-08T00:52:18;9.30;65.80
22923;DHT22;11627;51.322;22.816;2023-10-08T00:54:57;9.30;65.50
22923;DHT22;11627;51.322;22.816;2023-10-08T00:57:31;9.20;63.50
22923;DHT22;11627;51.322;22.816;2023-10-08T01:00:05;9.30;65.30
22923;DHT22;11627;51.322;22.816;2023-10-08T01:02:39;9.30;66.60
22923;DHT22;11627;51.322;22.816;2023-10-08T01:05:18;9.20;73.00
22923;DHT22;11627;51.322;22.816;2023-10-08T01:07:54;9.30;69.50
22923;DHT22;11627;51.322;22.816;2023-10-08T01:10:22;9.20;67.80
22923;DHT22;11627;51.322;22.816;2023-10-08T01:12:52;9.20;79.00
22923;DHT22;11627;51.322;22.816;2023-10-08T01:15:32;9.20;72.60
22923;DHT22;11627;51.322;22.816;2023-10-08T01:18:02;9.20;75.00
22923;DHT22;11627;51.322;22.816;2023-10-08T01:20:32;9.20;74.60
22923;DHT22;11627;51.322;22.816;2023-10-08T01:23:11;9.20;73.50
22923;DHT22;11627;51.322;22.816;2023-10-08T01:25:43;9.20;79.70
22923;DHT22;11627;51.322;22.816;2023-10-08T01:28:18;9.20;79.00
22923;DHT22;11627;51.322;22.816;2023-10-08T01:31:01;9.20;79.00
22923;DHT22;11627;51.322;22.816;2023-10-08T01:33:30;9.20;80.20
22923;DHT22;11627;51.322;22.816;2023-10-08T01:35:59;9.30;76.70
22923;DHT22;11627;51.322;22.816;2023-10-08T01:38:31;9.30;75.20
22923;DHT22;11627;51.322;22.816;2023-10-08T01:41:01;9.30;76.80
22923;DHT22;11627;51.322;22.816;2023-10-08T01:43:46;9.30;75.50
22923;DHT22;11627;51.322;22.816;2023-10-08T01:46:13;9.20;77.40
22923;DHT22;11627;51.322;22.816;2023-10-08T01:48:43;9.30;82.80
22923;DHT22;11627;51.322;22.816;2023-10-08T01:51:12;9.20;81.50
22923;DHT22;11627;51.322;22.816;2023-10-08T01:53:53;9.10;89.20
22923;DHT22;11627;51.322;22.816;2023-10-08T01:56:21;9.10;91.00
22923;DHT22;11627;51.322;22.816;2023-10-08T01:58:48;9.20;90.50
22923;DHT22;11627;51.322;22.816;2023-10-08T02:01:20;9.20;90.50
22923;DHT22;11627;51.322;22.816;2023-10-08T02:03:47;9.20;86.80
22923;DHT22;11627;51.322;22.816;2023-10-08T02:06:16;9.10;87.40
22923;DHT22;11627;51.322;22.816;2023-10-08T02:08:43;9.10;90.70
22923;DHT22;11627;51.322;22.816;2023-10-08T02:11:10;9.00;92.50
22923;DHT22;11627;51.322;22.816;2023-10-08T02:13:37;9.10;94.90
22923;DHT22;11627;51.322;22.816;2023-10-08T02:16:04;9.10;93.20
22923;DHT22;11627;51.322;22.816;2023-10-08T02:18:32;9.10;90.90
22923;DHT22;11627;51.322;22.816;2023-10-08T02:21:01;9.10;91.20
22923;DHT22;11627;51.322;22.816;2023-10-08T02:23:29;9.10;91.80
22923;DHT22;11627;51.322;22.816;2023-10-08T02:25:56;9.20;90.80
22923;DHT22;11627;51.322;22.816;2023-10-08T02:28:24;9.10;90.70
22923;DHT22;11627;51.322;22.816;2023-10-08T02:30:52;9.00;91.80
22923;DHT22;11627;51.322;22.816;2023-10-08T02:33:19;9.00;93.70
22923;DHT22;11627;51.322;22.816;2023-10-08T02:35:47;9.10;93.90
22923;DHT22;11627;51.322;22.816;2023-10-08T02:38:15;9.10;91.80
22923;DHT22;11627;51.322;22.816;2023-10-08T02:40:45;9.10;91.70
22923;DHT22;11627;51.322;22.816;2023-10-08T02:43:15;9.10;92.20
22923;DHT22;11627;51.322;22.816;2023-10-08T02:45:43;9.10;91.90
22923;DHT22;11627;51.322;22.816;2023-10-08T02:48:15;9.10;92.40
22923;DHT22;11627;51.322;22.816;2023-10-08T02:50:46;9.10;91.70
22923;DHT22;11627;51.322;22.816;2023-10-08T02:53:14;9.10;92.30
22923;DHT22;11627;51.322;22.816;2023-10-08T02:55:52;9.10;92.90
22923;DHT22;11627;51.322;22.816;2023-10-08T02:58:20;9.10;94.20
22923;DHT22;11627;51.322;22.816;2023-10-08T03:00:48;9.00;96.20
22923;DHT22;11627;51.322;22.816;2023-10-08T03:03:21;9.00;96.50
22923;DHT22;11627;51.322;22.816;2023-10-08T03:05:52;9.10;95.50
22923;DHT22;11627;51.322;22.816;2023-10-08T03:08:20;9.10;96.30
22923;DHT22;11627;51.322;22.816;2023-10-08T03:10:48;9.10;97.00
22923;DHT22;11627;51.322;22.816;2023-10-08T03:13:22;9.10;96.20
22923;DHT22;11627;51.322;22.816;2023-10-08T03:15:49;9.10;96.60
22923;DHT22;11627;51.322;22.816;2023-10-08T03:18:35;9.10;97.40
22923;DHT22;11627;51.322;22.816;2023-10-08T03:21:06;9.00;96.60
22923;DHT22;11627;51.322;22.816;2023-10-08T03:23:49;9.00;97.50
22923;DHT22;11627;51.322;22.816;2023-10-08T03:26:23;9.10;98.50
22923;DHT22;11627;51.322;22.816;2023-10-08T03:29:08;9.10;96.70
22923;DHT22;11627;51.322;22.816;2023-10-08T03:31:43;9.10;97.50
22923;DHT22;11627;51.322;22.816;2023-10-08T03:34:17;9.10;97.60
22923;DHT22;11627;51.322;22.816;2023-10-08T03:37:04;9.10;98.10
22923;DHT22;11627;51.322;22.816;2023-10-08T03:39:35;9.00;98.40
22923;DHT22;11627;51.322;22.816;2023-10-08T03:42:30;9.10;98.50
22923;DHT22;11627;51.322;22.816;2023-10-08T03:44:59;9.00;98.90
22923;DHT22;11627;51.322;22.816;2023-10-08T03:47:37;9.00;99.90
22923;DHT22;11627;51.322;22.816;2023-10-08T03:50:08;9.00;99.90
22923;DHT22;11627;51.322;22.816;2023-10-08T03:52:36;9.00;99.90
22923;DHT22;11627;51.322;22.816;2023-10-08T03:55:06;9.00;99.90
22923;DHT22;11627;51.322;22.816;2023-10-08T03:57:46;9.00;99.90
22923;DHT22;11627;51.322;22.816;2023-10-08T04:00:15;9.00;99.90
22923;DHT22;11627;51.322;22.816;2023-10-08T04:02:48;9.00;99.10
22923;DHT22;11627;51.322;22.816;2023-10-08T04:05:22;9.00;98.10
22923;DHT22;11627;51.322;22.816;2023-10-08T04:08:09;9.00;99.60
22923;DHT22;11627;51.322;22.816;2023-10-08T04:11:13;8.90;99.70
22923;DHT22;11627;51.322;22.816;2023-10-08T04:13:56;8.90;99.30
22923;DHT22;11627;51.322;22.816;2023-10-08T04:16:26;9.00;98.40
22923;DHT22;11627;51.322;22.816;2023-10-08T04:18:57;9.00;97.90
22923;DHT22;11627;51.322;22.816;2023-10-08T04:21:32;8.90;96.40
22923;DHT22;11627;51.322;22.816;2023-10-08T04:24:01;9.00;96.40
22923;DHT22;11627;51.322;22.816;2023-10-08T04:26:30;9.00;92.90
22923;DHT22;11627;51.322;22.816;2023-10-08T04:29:00;9.00;94.00
22923;DHT22;11627;51.322;22.816;2023-10-08T04:31:36;9.00;94.10
22923;DHT22;11627;51.322;22.816;2023-10-08T04:34:10;9.10;92.20
22923;DHT22;11627;51.322;22.816;2023-10-08T04:36:52;9.00;90.90
22923;DHT22;11627;51.322;22.816;2023-10-08T04:39:30;9.00;91.50
22923;DHT22;11627;51.322;22.816;2023-10-08T04:42:01;9.00;92.10
22923;DHT22;11627;51.322;22.816;2023-10-08T04:44:40;8.90;93.40
22923;DHT22;11627;51.322;22.816;2023-10-08T04:47:08;8.90;95.90
22923;DHT22;11627;51.322;22.816;2023-10-08T04:49:36;8.90;95.10
22923;DHT22;11627;51.322;22.816;2023-10-08T04:52:12;9.00;95.70
22923;DHT22;11627;51.322;22.816;2023-10-08T04:54:44;9.10;93.80
22923;DHT22;11627;51.322;22.816;2023-10-08T04:57:21;9.00;92.50
22923;DHT22;11627;51.322;22.816;2023-10-08T04:59:52;9.00;93.60
22923;DHT22;11627;51.322;22.816;2023-10-08T05:02:44;8.90;95.90
22923;DHT22;11627;51.322;22.816;2023-10-08T05:05:20;9.00;97.30
22923;DHT22;11627;51.322;22.816;2023-10-08T05:07:49;9.50;95.30
22923;DHT22;11627;51.322;22.816;2023-10-08T05:10:15;9.00;95.70
22923;DHT22;11627;51.322;22.816;2023-10-08T05:13:08;8.90;96.60
22923;DHT22;11627;51.322;22.816;2023-10-08T05:15:38;8.90;98.90
22923;DHT22;11627;51.322;22.816;2023-10-08T05:18:25;9.00;97.80
22923;DHT22;11627;51.322;22.816;2023-10-08T05:21:12;8.90;97.50
22923;DHT22;11627;51.322;22.816;2023-10-08T05:24:06;8.90;98.00
22923;DHT22;11627;51.322;22.816;2023-10-08T05:26:57;8.90;98.50
22923;DHT22;11627;51.322;22.816;2023-10-08T05:29:45;8.90;97.50
22923;DHT22;11627;51.322;22.816;2023-10-08T05:32:31;8.90;96.80
22923;DHT22;11627;51.322;22.816;2023-10-08T05:35:07;8.80;98.70
22923;DHT22;11627;51.322;22.816;2023-10-08T05:37:52;8.80;98.10
22923;DHT22;11627;51.322;22.816;2023-10-08T05:40:29;8.80;97.40
22923;DHT22;11627;51.322;22.816;2023-10-08T05:43:14;8.80;97.10
22923;DHT22;11627;51.322;22.816;2023-10-08T05:46:01;8.80;98.50
22923;DHT22;11627;51.322;22.816;2023-10-08T05:49:05;8.80;98.10
22923;DHT22;11627;51.322;22.816;2023-10-08T05:51:34;8.90;98.60
22923;DHT22;11627;51.322;22.816;2023-10-08T05:54:35;9.00;95.00
22923;DHT22;11627;51.322;22.816;2023-10-08T05:57:06;9.00;92.30
22923;DHT22;11627;51.322;22.816;2023-10-08T05:59:38;9.10;94.30
22923;DHT22;11627;51.322;22.816;2023-10-08T06:02:42;9.10;91.40
22923;DHT22;11627;51.322;22.816;2023-10-08T06:05:12;9.10;79.10
22923;DHT22;11627;51.322;22.816;2023-10-08T06:07:47;9.20;83.20
22923;DHT22;11627;51.322;22.816;2023-10-08T06:10:38;9.20;86.40
22923;DHT22;11627;51.322;22.816;2023-10-08T06:13:24;9.30;78.10
22923;DHT22;11627;51.322;22.816;2023-10-08T06:16:19;9.40;78.40
22923;DHT22;11627;51.322;22.816;2023-10-08T06:18:57;9.60;62.40
22923;DHT22;11627;51.322;22.816;2023-10-08T06:21:25;9.40;47.50
22923;DHT22;11627;51.322;22.816;2023-10-08T06:23:53;9.50;46.00
22923;DHT22;11627;51.322;22.816;2023-10-08T06:26:23;9.50;42.80
22923;DHT22;11627;51.322;22.816;2023-10-08T06:28:52;9.70;55.80
22923;DHT22;11627;51.322;22.816;2023-10-08T06:31:24;9.90;47.80
22923;DHT22;11627;51.322;22.816;2023-10-08T06:33:53;10.00;45.80
22923;DHT22;11627;51.322;22.816;2023-10-08T06:36:20;9.80;25.80
22923;DHT22;11627;51.322;22.816;2023-10-08T06:38:52;9.80;25.50
22923;DHT22;11627;51.322;22.816;2023-10-08T06:41:19;9.70;19.80
22923;DHT22;11627;51.322;22.816;2023-10-08T06:43:49;9.70;3.60
22923;DHT22;11627;51.322;22.816;2023-10-08T06:46:17;9.60;1.00
22923;DHT22;11627;51.322;22.816;2023-10-08T06:48:46;9.70;1.00
22923;DHT22;11627;51.322;22.816;2023-10-08T06:51:16;9.70;1.00
22923;DHT22;11627;51.322;22.816;2023-10-08T06:53:48;9.70;1.00
22923;DHT22;11627;51.322;22.816;2023-10-08T06:56:16;9.80;1.00
22923;DHT22;11627;51.322;22.816;2023-10-08T06:58:46;9.70;1.00
22923;DHT22;11627;51.322;22.816;2023-10-08T07:01:20;9.70;1.00
22923;DHT22;11627;51.322;22.816;2023-10-08T07:04:10;9.60;1.00
22923;DHT22;11627;51.322;22.816;2023-10-08T07:06:42;9.50;1.00
22923;DHT22;11627;51.322;22.816;2023-10-08T07:09:10;9.60;1.00
22923;DHT22;11627;51.322;22.816;2023-10-08T07:11:56;9.40;1.00
22923;DHT22;11627;51.322;22.816;2023-10-08T07:14:27;9.40;1.00
22923;DHT22;11627;51.322;22.816;2023-10-08T07:16:59;9.40;1.00
22923;DHT22;11627;51.322;22.816;2023-10-08T07:19:28;9.50;1.00
22923;DHT22;11627;51.322;22.816;2023-10-08T07:22:21;9.70;1.00
22923;DHT22;11627;51.322;22.816;2023-10-08T07:25:10;9.50;1.00
22923;DHT22;11627;51.322;22.816;2023-10-08T07:27:38;9.40;1.00
22923;DHT22;11627;51.322;22.816;2023-10-08T07:30:04;9.50;1.00
22923;DHT22;11627;51.322;22.816;2023-10-08T07:32:37;9.80;1.00
22923;DHT22;11627;51.322;22.816;2023-10-08T07:35:05;9.90;99.90
22923;DHT22;11627;51.322;22.816;2023-10-08T07:37:51;9.90;99.90
22923;DHT22;11627;51.322;22.816;2023-10-08T07:40:20;9.90;99.90
22923;DHT22;11627;51.322;22.816;2023-10-08T07:43:08;9.80;99.90
22923;DHT22;11627;51.322;22.816;2023-10-08T07:45:36;9.90;99.90
22923;DHT22;11627;51.322;22.816;2023-10-08T07:48:03;9.80;59.50
22923;DHT22;11627;51.322;22.816;2023-10-08T07:50:53;9.70;1.00
22923;DHT22;11627;51.322;22.816;2023-10-08T07:53:20;9.70;1.00
22923;DHT22;11627;51.322;22.816;2023-10-08T07:55:49;9.80;99.90
22923;DHT22;11627;51.322;22.816;2023-10-08T07:58:20;10.00;1.00
22923;DHT22;11627;51.322;22.816;2023-10-08T08:00:48;10.10;99.90
22923;DHT22;11627;51.322;22.816;2023-10-08T08:03:22;10.10;99.90
22923;DHT22;11627;51.322;22.816;2023-10-08T08:05:50;10.10;99.90
22923;DHT22;11627;51.322;22.816;2023-10-08T08:08:20;10.20;99.90
22923;DHT22;11627;51.322;22.816;2023-10-08T08:11:08;10.10;1.00
22923;DHT22;11627;51.322;22.816;2023-10-08T08:13:44;10.00;77.80
22923;DHT22;11627;51.322;22.816;2023-10-08T08:16:13;10.10;99.90
22923;DHT22;11627;51.322;22.816;2023-10-08T08:18:53;10.10;1.00
22923;DHT22;11627;51.322;22.816;2023-10-08T08:21:25;10.00;99.90
22923;DHT22;11627;51.322;22.816;2023-10-08T08:23:54;9.90;1.00
22923;DHT22;11627;51.322;22.816;2023-10-08T08:26:43;9.90;99.90
22923;DHT22;11627;51.322;22.816;2023-10-08T08:29:31;9.80;1.00
22923;DHT22;11627;51.322;22.816;2023-10-08T08:32:03;10.00;99.90
22923;DHT22;11627;51.322;22.816;2023-10-08T08:34:31;10.10;99.90
22923;DHT22;11627;51.322;22.816;2023-10-08T08:37:00;10.00;1.00
22923;DHT22;11627;51.322;22.816;2023-10-08T08:39:27;10.00;99.90
22923;DHT22;11627;51.322;22.816;2023-10-08T08:42:22;10.00;90.10
22923;DHT22;11627;51.322;22.816;2023-10-08T08:45:13;10.10;1.00
22923;DHT22;11627;51.322;22.816;2023-10-08T08:47:46;10.10;99.90
22923;DHT22;11627;51.322;22.816;2023-10-08T08:50:13;10.30;99.90
22923;DHT22;11627;51.322;22.816;2023-10-08T08:52:41;10.60;99.90
22923;DHT22;11627;51.322;22.816;2023-10-08T08:55:08;10.70;21.50
22923;DHT22;11627;51.322;22.816;2023-10-08T08:57:45;10.60;1.00
22923;DHT22;11627;51.322;22.816;2023-10-08T09:00:36;10.70;1.00
22923;DHT22;11627;51.322;22.816;2023-10-08T09:03:04;10.70;1.00
22923;DHT22;11627;51.322;22.816;2023-10-08T09:05:34;10.30;1.00
22923;DHT22;11627;51.322;22.816;2023-10-08T09:08:05;10.10;1.00
22923;DHT22;11627;51.322;22.816;2023-10-08T09:10:37;10.10;62.70
22923;DHT22;11627;51.322;22.816;2023-10-08T09:13:24;10.20;99.90
22923;DHT22;11627;51.322;22.816;2023-10-08T09:16:14;10.00;1.00
22923;DHT22;11627;51.322;22.816;2023-10-08T09:18:47;10.00;1.00
22923;DHT22;11627;51.322;22.816;2023-10-08T09:21:18;10.10;22.40
22923;DHT22;11627;51.322;22.816;2023-10-08T09:23:50;10.20;99.90
22923;DHT22;11627;51.322;22.816;2023-10-08T09:26:18;10.50;99.90
22923;DHT22;11627;51.322;22.816;2023-10-08T09:28:47;10.60;99.90
22923;DHT22;11627;51.322;22.816;2023-10-08T09:31:17;10.60;99.90
22923;DHT22;11627;51.322;22.816;2023-10-08T09:33:54;10.80;99.90
22923;DHT22;11627;51.322;22.816;2023-10-08T09:36:26;10.90;99.90
22923;DHT22;11627;51.322;22.816;2023-10-08T09:39:04;10.80;83.40
22923;DHT22;11627;51.322;22.816;2023-10-08T09:41:41;10.90;99.90
22923;DHT22;11627;51.322;22.816;2023-10-08T09:44:08;11.00;40.90
22923;DHT22;11627;51.322;22.816;2023-10-08T09:46:37;10.80;1.00
22923;DHT22;11627;51.322;22.816;2023-10-08T09:49:07;10.70;1.00
22923;DHT22;11627;51.322;22.816;2023-10-08T09:51:40;10.50;45.60
22923;DHT22;11627;51.322;22.816;2023-10-08T09:54:28;10.50;1.00
22923;DHT22;11627;51.322;22.816;2023-10-08T09:57:02;10.50;92.80
22923;DHT22;11627;51.322;22.816;2023-10-08T09:59:30;10.60;99.90
22923;DHT22;11627;51.322;22.816;2023-10-08T10:01:57;10.90;1.00
22923;DHT22;11627;51.322;22.816;2023-10-08T10:04:26;11.00;50.30
22923;DHT22;11627;51.322;22.816;2023-10-08T10:06:59;11.00;1.00
22923;DHT22;11627;51.322;22.816;2023-10-08T10:09:43;10.90;99.90
22923;DHT22;11627;51.322;22.816;2023-10-08T10:12:20;11.10;99.90
22923;DHT22;11627;51.322;22.816;2023-10-08T10:14:53;10.50;1.00
22923;DHT22;11627;51.322;22.816;2023-10-08T10:17:26;10.20;1.00
22923;DHT22;11627;51.322;22.816;2023-10-08T10:20:01;10.10;1.00
22923;DHT22;11627;51.322;22.816;2023-10-08T10:22:33;10.30;1.00
22923;DHT22;11627;51.322;22.816;2023-10-08T10:25:03;10.60;1.00
22923;DHT22;11627;51.322;22.816;2023-10-08T10:30:34;10.40;99.90
22923;DHT22;11627;51.322;22.816;2023-10-08T10:33:02;10.40;99.90
22923;DHT22;11627;51.322;22.816;2023-10-08T10:35:32;10.50;99.90
22923;DHT22;11627;51.322;22.816;2023-10-08T10:38:04;10.40;99.90
22923;DHT22;11627;51.322;22.816;2023-10-08T10:40:33;10.70;99.90
22923;DHT22;11627;51.322;22.816;2023-10-08T10:43:07;10.80;99.90
22923;DHT22;11627;51.322;22.816;2023-10-08T10:45:37;10.60;99.90
22923;DHT22;11627;51.322;22.816;2023-10-08T10:48:09;10.40;99.90
22923;DHT22;11627;51.322;22.816;2023-10-08T10:50:49;10.20;99.90
22923;DHT22;11627;51.322;22.816;2023-10-08T10:53:39;10.30;99.90
22923;DHT22;11627;51.322;22.816;2023-10-08T10:56:24;10.70;99.90
22923;DHT22;11627;51.322;22.816;2023-10-08T10:59:09;11.00;99.90
22923;DHT22;11627;51.322;22.816;2023-10-08T11:01:48;11.10;99.90
22923;DHT22;11627;51.322;22.816;2023-10-08T11:04:34;11.30;99.90
22923;DHT22;11627;51.322;22.816;2023-10-08T11:07:19;11.30;99.90
22923;DHT22;11627;51.322;22.816;2023-10-08T11:09:51;11.60;99.90
22923;DHT22;11627;51.322;22.816;2023-10-08T11:12:19;11.10;99.90
22923;DHT22;11627;51.322;22.816;2023-10-08T11:14:51;11.00;85.10
22923;DHT22;11627;51.322;22.816;2023-10-08T11:17:25;10.80;1.00
22923;DHT22;11627;51.322;22.816;2023-10-08T11:19:53;10.80;1.00
22923;DHT22;11627;51.322;22.816;2023-10-08T11:22:20;10.90;1.00
22923;DHT22;11627;51.322;22.816;2023-10-08T11:24:49;10.70;1.00
22923;DHT22;11627;51.322;22.816;2023-10-08T11:27:20;10.60;90.30
22923;DHT22;11627;51.322;22.816;2023-10-08T11:30:06;10.70;1.00
22923;DHT22;11627;51.322;22.816;2023-10-08T11:32:40;10.70;1.00
22923;DHT22;11627;51.322;22.816;2023-10-08T11:35:14;10.70;1.00
22923;DHT22;11627;51.322;22.816;2023-10-08T11:37:51;10.60;99.90
22923;DHT22;11627;51.322;22.816;2023-10-08T11:40:25;10.60;99.90
22923;DHT22;11627;51.322;22.816;2023-10-08T11:42:58;10.80;1.00
22923;DHT22;11627;51.322;22.816;2023-10-08T11:45:33;11.00;1.00
22923;DHT22;11627;51.322;22.816;2023-10-08T11:48:18;11.00;99.90
22923;DHT22;11627;51.322;22.816;2023-10-08T11:50:55;11.00;99.90
22923;DHT22;11627;51.322;22.816;2023-10-08T11:53:34;11.20;99.90
22923;DHT22;11627;51.322;22.816;2023-10-08T11:56:03;11.30;99.90
22923;DHT22;11627;51.322;22.816;2023-10-08T11:58:40;11.30;99.90
22923;DHT22;11627;51.322;22.816;2023-10-08T12:01:13;11.00;99.90
22923;DHT22;11627;51.322;22.816;2023-10-08T12:03:43;11.20;99.90
22923;DHT22;11627;51.322;22.816;2023-10-08T12:06:16;11.00;99.90
22923;DHT22;11627;51.322;22.816;2023-10-08T12:08:48;11.20;99.90
22923;DHT22;11627;51.322;22.816;2023-10-08T12:11:20;11.20;99.90
22923;DHT22;11627;51.322;22.816;2023-10-08T12:13:50;11.20;99.90
22923;DHT22;11627;51.322;22.816;2023-10-08T12:16:19;11.10;99.90
22923;DHT22;11627;51.322;22.816;2023-10-08T12:18:49;11.10;99.90
22923;DHT22;11627;51.322;22.816;2023-10-08T12:21:21;10.90;99.90
22923;DHT22;11627;51.322;22.816;2023-10-08T12:23:48;10.90;99.90
22923;DHT22;11627;51.322;22.816;2023-10-08T12:26:19;11.10;99.90
22923;DHT22;11627;51.322;22.816;2023-10-08T12:28:48;11.10;99.90
22923;DHT22;11627;51.322;22.816;2023-10-08T12:31:18;11.20;99.90
22923;DHT22;11627;51.322;22.816;2023-10-08T12:33:51;11.40;99.90
22923;DHT22;11627;51.322;22.816;2023-10-08T12:36:21;11.50;99.90
22923;DHT22;11627;51.322;22.816;2023-10-08T12:38:50;11.50;99.90
22923;DHT22;11627;51.322;22.816;2023-10-08T12:41:39;11.40;99.90
22923;DHT22;11627;51.322;22.816;2023-10-08T12:44:06;11.30;99.90
22923;DHT22;11627;51.322;22.816;2023-10-08T12:46:35;11.40;99.90
22923;DHT22;11627;51.322;22.816;2023-10-08T12:49:03;11.40;99.90
22923;DHT22;11627;51.322;22.816;2023-10-08T12:51:31;11.10;99.90
22923;DHT22;11627;51.322;22.816;2023-10-08T12:54:02;11.10;99.90
22923;DHT22;11627;51.322;22.816;2023-10-08T12:56:34;10.80;99.90
22923;DHT22;11627;51.322;22.816;2023-10-08T12:59:16;10.60;99.90
22923;DHT22;11627;51.322;22.816;2023-10-08T13:01:51;10.40;99.90
22923;DHT22;11627;51.322;22.816;2023-10-08T13:04:22;10.50;99.90
22923;DHT22;11627;51.322;22.816;2023-10-08T13:06:57;10.50;99.90
22923;DHT22;11627;51.322;22.816;2023-10-08T13:09:33;10.70;99.90
22923;DHT22;11627;51.322;22.816;2023-10-08T13:12:04;10.70;99.90
22923;DHT22;11627;51.322;22.816;2023-10-08T13:14:31;10.60;99.90
22923;DHT22;11627;51.322;22.816;2023-10-08T13:17:03;10.60;99.90
22923;DHT22;11627;51.322;22.816;2023-10-08T13:19:30;10.40;99.90
22923;DHT22;11627;51.322;22.816;2023-10-08T13:22:01;10.40;99.90
22923;DHT22;11627;51.322;22.816;2023-10-08T13:24:33;10.40;99.90
22923;DHT22;11627;51.322;22.816;2023-10-08T13:27:02;10.60;99.90
22923;DHT22;11627;51.322;22.816;2023-10-08T13:29:33;10.70;99.90
22923;DHT22;11627;51.322;22.816;2023-10-08T13:31:59;10.80;99.90
22923;DHT22;11627;51.322;22.816;2023-10-08T13:34:32;11.00;99.90
22923;DHT22;11627;51.322;22.816;2023-10-08T13:36:59;11.20;99.90
22923;DHT22;11627;51.322;22.816;2023-10-08T13:39:25;11.10;99.90
22923;DHT22;11627;51.322;22.816;2023-10-08T13:41:54;11.20;99.90
22923;DHT22;11627;51.322;22.816;2023-10-08T13:44:24;11.20;99.90
22923;DHT22;11627;51.322;22.816;2023-10-08T13:46:56;11.20;99.90
22923;DHT22;11627;51.322;22.816;2023-10-08T13:49:26;10.90;99.90
22923;DHT22;11627;51.322;22.816;2023-10-08T13:51:54;10.70;99.90
22923;DHT22;11627;51.322;22.816;2023-10-08T13:54:24;10.40;99.90
22923;DHT22;11627;51.322;22.816;2023-10-08T13:57:02;10.30;99.90
22923;DHT22;11627;51.322;22.816;2023-10-08T13:59:29;10.30;99.90
22923;DHT22;11627;51.322;22.816;2023-10-08T14:01:58;10.50;99.90
22923;DHT22;11627;51.322;22.816;2023-10-08T14:04:28;10.70;99.90
22923;DHT22;11627;51.322;22.816;2023-10-08T14:07:07;10.80;99.90
22923;DHT22;11627;51.322;22.816;2023-10-08T14:09:34;10.70;99.90
22923;DHT22;11627;51.322;22.816;2023-10-08T14:12:05;10.70;99.90
22923;DHT22;11627;51.322;22.816;2023-10-08T14:14:36;10.60;99.90
22923;DHT22;11627;51.322;22.816;2023-10-08T14:17:07;10.50;99.90
22923;DHT22;11627;51.322;22.816;2023-10-08T14:19:38;10.30;99.90
22923;DHT22;11627;51.322;22.816;2023-10-08T14:22:18;10.10;99.90
22923;DHT22;11627;51.322;22.816;2023-10-08T14:24:48;10.00;99.90
22923;DHT22;11627;51.322;22.816;2023-10-08T14:27:28;9.80;99.90
22923;DHT22;11627;51.322;22.816;2023-10-08T14:30:08;9.80;99.90
22923;DHT22;11627;51.322;22.816;2023-10-08T14:32:42;9.70;99.90
22923;DHT22;11627;51.322;22.816;2023-10-08T14:35:16;9.70;99.90
22923;DHT22;11627;51.322;22.816;2023-10-08T14:38:02;9.70;99.90
22923;DHT22;11627;51.322;22.816;2023-10-08T14:40:48;9.70;99.90
22923;DHT22;11627;51.322;22.816;2023-10-08T14:43:34;9.70;99.90
22923;DHT22;11627;51.322;22.816;2023-10-08T14:46:04;9.80;99.90
22923;DHT22;11627;51.322;22.816;2023-10-08T14:48:34;9.80;99.90
22923;DHT22;11627;51.322;22.816;2023-10-08T14:51:07;9.90;99.90
22923;DHT22;11627;51.322;22.816;2023-10-08T14:53:34;9.90;99.90
22923;DHT22;11627;51.322;22.816;2023-10-08T14:56:04;9.90;99.90
22923;DHT22;11627;51.322;22.816;2023-10-08T14:58:31;9.80;99.90
22923;DHT22;11627;51.322;22.816;2023-10-08T15:00:59;9.70;99.90
22923;DHT22;11627;51.322;22.816;2023-10-08T15:03:28;9.80;99.90
22923;DHT22;11627;51.322;22.816;2023-10-08T15:05:57;9.80;99.90
22923;DHT22;11627;51.322;22.816;2023-10-08T15:08:25;9.70;99.90
22923;DHT22;11627;51.322;22.816;2023-10-08T15:10:55;9.60;99.90
22923;DHT22;11627;51.322;22.816;2023-10-08T15:13:22;9.60;99.90
22923;DHT22;11627;51.322;22.816;2023-10-08T15:15:51;9.60;99.90
22923;DHT22;11627;51.322;22.816;2023-10-08T15:18:19;9.50;99.90
22923;DHT22;11627;51.322;22.816;2023-10-08T15:20:46;9.50;99.90
22923;DHT22;11627;51.322;22.816;2023-10-08T15:23:13;9.40;99.90
22923;DHT22;11627;51.322;22.816;2023-10-08T15:25:40;9.40;99.90
22923;DHT22;11627;51.322;22.816;2023-10-08T15:28:07;9.40;99.90
22923;DHT22;11627;51.322;22.816;2023-10-08T15:30:33;9.20;99.90
22923;DHT22;11627;51.322;22.816;2023-10-08T15:33:02;9.20;99.90
22923;DHT22;11627;51.322;22.816;2023-10-08T15:35:30;9.20;99.90
22923;DHT22;11627;51.322;22.816;2023-10-08T15:37:57;9.10;99.90
22923;DHT22;11627;51.322;22.816;2023-10-08T15:40:24;9.00;99.90
22923;DHT22;11627;51.322;22.816;2023-10-08T15:42:55;9.00;99.90
22923;DHT22;11627;51.322;22.816;2023-10-08T15:45:25;8.90;99.90
22923;DHT22;11627;51.322;22.816;2023-10-08T15:47:53;8.90;99.90
22923;DHT22;11627;51.322;22.816;2023-10-08T15:50:21;8.80;99.90
22923;DHT22;11627;51.322;22.816;2023-10-08T15:52:51;8.80;99.90
22923;DHT22;11627;51.322;22.816;2023-10-08T15:55:18;8.70;99.90
22923;DHT22;11627;51.322;22.816;2023-10-08T15:57:50;8.70;99.90
22923;DHT22;11627;51.322;22.816;2023-10-08T16:00:17;8.60;99.90
22923;DHT22;11627;51.322;22.816;2023-10-08T16:02:46;8.60;99.90
22923;DHT22;11627;51.322;22.816;2023-10-08T16:05:16;8.50;99.90
22923;DHT22;11627;51.322;22.816;2023-10-08T16:07:43;8.40;99.90
22923;DHT22;11627;51.322;22.816;2023-10-08T16:10:11;8.40;99.90